Nearby METAR Reports

 

KLEX - Lexington, Kentucky, USA
Distance from station: WNW 7mi, 11km
Updated: Sat, 18-Nov-2017 9:54pm EST
Light rain, Overcast
Light rain, Overcast
 Wind from WNW
Wind: WNW 21 mph , 33 km/h, Gust: 35 mph , 56 km/h
Temperature: 45°F , 7°C
Wind Chill: 37°F , 3°C
Dew Point: 39°F , 4°C
Humidity: 81%
Barometer: 29.65 inHg , 1004.1 hPa
Summary: Light rain
Clouds: Overcast
Visibility: 7 miles , 11 km
Cloud details: Partly cloudy 1300 ft
Mostly cloudy 1700 ft
Overcast 3200 ft
2017/11/19 02:54 KLEX 190254Z 30018G30KT 7SM -RA SCT013 BKN017 OVC032 07/04 A2965 RMK AO2 PK WND 29034/0224 RAB0156 PRESRR SLP039 P0000 60003 T00670044 53095
KFFT - Frankfort, Kentucky, USA
Distance from station: WNW 26mi, 42km
Updated: Sat, 18-Nov-2017 9:53pm EST
Light rain, Overcast
Light rain, Overcast
 Wind from NW
Wind: NW 18 mph , 30 km/h, Gust: 30 mph , 48 km/h
Temperature: 43°F , 6°C
Wind Chill: 35°F , 2°C
Dew Point: 37°F , 3°C
Humidity: 81%
Barometer: 29.66 inHg , 1004.4 hPa
Summary: Light rain
Clouds: Overcast
Visibility: 10 miles , 16 km
Cloud details: Mostly cloudy 1500 ft
Overcast 2200 ft
2017/11/19 02:53 KFFT 190253Z AUTO 31016G26KT 10SM -RA BKN015 OVC022 06/03 A2966 RMK AO2 PK WND 28032/0236 RAB0159 PRESRR SLP043 P0001 60004 T00610033 51107
 
KIOB - Mount Sterling, Kentucky, USA
Distance from station: E 27mi, 44km
Updated: Sat, 18-Nov-2017 9:55pm EST
Light drizzle, Overcast
Light drizzle, Overcast
 Wind from NW
Wind: NW 21 mph , 33 km/h, Gust: 40 mph , 65 km/h
Temperature: 43°F , 6°C
Wind Chill: 34°F , 1°C
Dew Point: 41°F , 5°C
Humidity: 93%
Barometer: 29.61 inHg , 1002.7 hPa
Summary: Light Drizzle
Clouds: Overcast
Visibility: 7 miles , 11 km
Cloud details: Partly cloudy 900 ft
Overcast 1300 ft
2017/11/19 02:55 KIOB 190255Z AUTO 32018G35KT 280V010 7SM -DZ SCT009 OVC013 06/05 A2961 RMK AO2
KDVK - Danville, Kentucky, USA
Distance from station: SSW 33mi, 53km
Updated: Sat, 18-Nov-2017 9:55pm EST
Drizzle, Overcast
Drizzle, Overcast
 Wind from WNW
Wind: WNW 15 mph , 24 km/h, Gust: 25 mph , 41 km/h
Temperature: 43°F , 6°C
Wind Chill: 36°F , 2°C
Dew Point: 41°F , 5°C
Humidity: 93%
Barometer: 29.70 inHg , 1005.8 hPa
Summary: Drizzle
Clouds: Overcast
Visibility: 4 miles , 6 km
Cloud details: Overcast 900 ft
2017/11/19 02:55 KDVK 190255Z AUTO 30013G22KT 4SM DZ OVC009 06/05 A2970 RMK AO2